sensor_id;sensor_type;location;lat;lon;timestamp;P1;durP1;ratioP1;P2;durP2;ratioP2
3311;SDS011;1668;49.648;8.570;2023-03-17T00:00:33;17.43;;;8.27;;
3311;SDS011;1668;49.648;8.570;2023-03-17T00:03:00;17.23;;;8.50;;
3311;SDS011;1668;49.648;8.570;2023-03-17T00:05:29;13.53;;;7.20;;
3311;SDS011;1668;49.648;8.570;2023-03-17T00:07:58;17.30;;;7.60;;
3311;SDS011;1668;49.648;8.570;2023-03-17T00:10:30;18.10;;;7.80;;
3311;SDS011;1668;49.648;8.570;2023-03-17T00:12:57;11.37;;;6.70;;
3311;SDS011;1668;49.648;8.570;2023-03-17T00:15:25;10.93;;;7.20;;
3311;SDS011;1668;49.648;8.570;2023-03-17T00:17:54;18.17;;;7.80;;
3311;SDS011;1668;49.648;8.570;2023-03-17T00:20:22;13.87;;;7.97;;
3311;SDS011;1668;49.648;8.570;2023-03-17T00:22:51;15.00;;;7.40;;
3311;SDS011;1668;49.648;8.570;2023-03-17T00:25:21;11.80;;;7.17;;
3311;SDS011;1668;49.648;8.570;2023-03-17T00:27:49;13.83;;;6.60;;
3311;SDS011;1668;49.648;8.570;2023-03-17T00:30:17;14.73;;;7.23;;
3311;SDS011;1668;49.648;8.570;2023-03-17T00:32:46;10.30;;;6.60;;
3311;SDS011;1668;49.648;8.570;2023-03-17T00:35:15;12.90;;;7.30;;
3311;SDS011;1668;49.648;8.570;2023-03-17T00:37:44;14.07;;;7.00;;
3311;SDS011;1668;49.648;8.570;2023-03-17T00:40:16;10.33;;;5.83;;
3311;SDS011;1668;49.648;8.570;2023-03-17T00:42:45;10.87;;;6.40;;
3311;SDS011;1668;49.648;8.570;2023-03-17T00:45:12;10.40;;;6.00;;
3311;SDS011;1668;49.648;8.570;2023-03-17T00:47:39;11.80;;;6.10;;
3311;SDS011;1668;49.648;8.570;2023-03-17T00:50:10;11.53;;;6.00;;
3311;SDS011;1668;49.648;8.570;2023-03-17T00:52:39;7.93;;;4.87;;
3311;SDS011;1668;49.648;8.570;2023-03-17T00:55:07;9.07;;;5.60;;
3311;SDS011;1668;49.648;8.570;2023-03-17T00:57:35;6.93;;;4.63;;
3311;SDS011;1668;49.648;8.570;2023-03-17T01:00:04;8.33;;;4.50;;
3311;SDS011;1668;49.648;8.570;2023-03-17T01:02:32;7.90;;;4.33;;
3311;SDS011;1668;49.648;8.570;2023-03-17T01:04:59;6.20;;;3.57;;
3311;SDS011;1668;49.648;8.570;2023-03-17T01:07:28;6.90;;;3.43;;
3311;SDS011;1668;49.648;8.570;2023-03-17T01:09:54;5.90;;;4.00;;
3311;SDS011;1668;49.648;8.570;2023-03-17T01:12:21;5.73;;;4.00;;
3311;SDS011;1668;49.648;8.570;2023-03-17T01:14:48;4.60;;;3.27;;
3311;SDS011;1668;49.648;8.570;2023-03-17T01:17:16;6.13;;;3.50;;
3311;SDS011;1668;49.648;8.570;2023-03-17T01:19:43;6.10;;;3.90;;
3311;SDS011;1668;49.648;8.570;2023-03-17T01:22:10;5.67;;;4.30;;
3311;SDS011;1668;49.648;8.570;2023-03-17T01:24:39;6.17;;;3.90;;
3311;SDS011;1668;49.648;8.570;2023-03-17T01:27:06;6.40;;;4.17;;
3311;SDS011;1668;49.648;8.570;2023-03-17T01:29:33;6.77;;;3.97;;
3311;SDS011;1668;49.648;8.570;2023-03-17T01:32:00;6.80;;;3.50;;
3311;SDS011;1668;49.648;8.570;2023-03-17T01:34:27;5.40;;;3.60;;
3311;SDS011;1668;49.648;8.570;2023-03-17T01:36:53;6.57;;;3.73;;
3311;SDS011;1668;49.648;8.570;2023-03-17T01:39:20;5.03;;;3.87;;
3311;SDS011;1668;49.648;8.570;2023-03-17T01:41:48;6.53;;;4.23;;
3311;SDS011;1668;49.648;8.570;2023-03-17T01:44:20;6.03;;;3.73;;
3311;SDS011;1668;49.648;8.570;2023-03-17T01:46:48;7.07;;;4.17;;
3311;SDS011;1668;49.648;8.570;2023-03-17T01:49:16;6.30;;;4.27;;
3311;SDS011;1668;49.648;8.570;2023-03-17T01:51:48;6.87;;;4.60;;
3311;SDS011;1668;49.648;8.570;2023-03-17T01:54:30;7.13;;;4.57;;
3311;SDS011;1668;49.648;8.570;2023-03-17T01:57:03;6.90;;;4.73;;
3311;SDS011;1668;49.648;8.570;2023-03-17T01:59:37;8.40;;;5.20;;
3311;SDS011;1668;49.648;8.570;2023-03-17T02:02:10;9.03;;;5.00;;
3311;SDS011;1668;49.648;8.570;2023-03-17T02:04:40;7.77;;;5.30;;
3311;SDS011;1668;49.648;8.570;2023-03-17T02:07:07;6.70;;;5.53;;
3311;SDS011;1668;49.648;8.570;2023-03-17T02:09:35;8.07;;;5.43;;
3311;SDS011;1668;49.648;8.570;2023-03-17T02:12:04;7.47;;;5.30;;
3311;SDS011;1668;49.648;8.570;2023-03-17T02:14:33;7.70;;;5.83;;
3311;SDS011;1668;49.648;8.570;2023-03-17T02:17:00;8.33;;;5.83;;
3311;SDS011;1668;49.648;8.570;2023-03-17T02:19:27;8.80;;;5.97;;
3311;SDS011;1668;49.648;8.570;2023-03-17T02:21:56;10.00;;;5.60;;
3311;SDS011;1668;49.648;8.570;2023-03-17T02:24:25;9.23;;;6.73;;
3311;SDS011;1668;49.648;8.570;2023-03-17T02:26:56;11.20;;;6.63;;
3311;SDS011;1668;49.648;8.570;2023-03-17T02:29:28;9.47;;;6.47;;
3311;SDS011;1668;49.648;8.570;2023-03-17T02:31:58;8.00;;;5.87;;
3311;SDS011;1668;49.648;8.570;2023-03-17T02:34:25;11.57;;;5.97;;
3311;SDS011;1668;49.648;8.570;2023-03-17T02:36:51;11.07;;;5.87;;
3311;SDS011;1668;49.648;8.570;2023-03-17T02:39:19;8.27;;;5.33;;
3311;SDS011;1668;49.648;8.570;2023-03-17T02:41:46;13.53;;;5.53;;
3311;SDS011;1668;49.648;8.570;2023-03-17T02:44:13;8.83;;;5.80;;
3311;SDS011;1668;49.648;8.570;2023-03-17T02:46:40;8.67;;;5.83;;
3311;SDS011;1668;49.648;8.570;2023-03-17T02:49:07;8.77;;;5.50;;
3311;SDS011;1668;49.648;8.570;2023-03-17T02:51:34;11.03;;;6.07;;
3311;SDS011;1668;49.648;8.570;2023-03-17T02:54:01;8.93;;;5.17;;
3311;SDS011;1668;49.648;8.570;2023-03-17T02:56:29;7.33;;;5.27;;
3311;SDS011;1668;49.648;8.570;2023-03-17T02:58:56;12.40;;;5.93;;
3311;SDS011;1668;49.648;8.570;2023-03-17T03:01:23;7.03;;;5.83;;
3311;SDS011;1668;49.648;8.570;2023-03-17T03:03:51;8.47;;;5.10;;
3311;SDS011;1668;49.648;8.570;2023-03-17T03:06:18;7.47;;;5.00;;
3311;SDS011;1668;49.648;8.570;2023-03-17T03:08:44;7.60;;;5.43;;
3311;SDS011;1668;49.648;8.570;2023-03-17T03:11:11;8.90;;;5.17;;
3311;SDS011;1668;49.648;8.570;2023-03-17T03:13:40;6.60;;;5.30;;
3311;SDS011;1668;49.648;8.570;2023-03-17T03:16:06;8.10;;;5.30;;
3311;SDS011;1668;49.648;8.570;2023-03-17T03:18:34;7.30;;;5.23;;
3311;SDS011;1668;49.648;8.570;2023-03-17T03:21:01;9.13;;;5.50;;
3311;SDS011;1668;49.648;8.570;2023-03-17T03:23:28;8.00;;;5.13;;
3311;SDS011;1668;49.648;8.570;2023-03-17T03:25:55;8.30;;;5.10;;
3311;SDS011;1668;49.648;8.570;2023-03-17T03:28:22;7.20;;;5.00;;
3311;SDS011;1668;49.648;8.570;2023-03-17T03:30:50;7.70;;;4.93;;
3311;SDS011;1668;49.648;8.570;2023-03-17T03:33:17;7.97;;;5.03;;
3311;SDS011;1668;49.648;8.570;2023-03-17T03:35:44;7.47;;;5.40;;
3311;SDS011;1668;49.648;8.570;2023-03-17T03:38:11;7.93;;;5.13;;
3311;SDS011;1668;49.648;8.570;2023-03-17T03:40:38;6.80;;;4.97;;
3311;SDS011;1668;49.648;8.570;2023-03-17T03:43:05;6.50;;;4.90;;
3311;SDS011;1668;49.648;8.570;2023-03-17T03:45:32;6.93;;;5.23;;
3311;SDS011;1668;49.648;8.570;2023-03-17T03:48:01;10.63;;;4.57;;
3311;SDS011;1668;49.648;8.570;2023-03-17T03:50:28;6.97;;;4.87;;
3311;SDS011;1668;49.648;8.570;2023-03-17T03:52:55;9.70;;;5.50;;
3311;SDS011;1668;49.648;8.570;2023-03-17T03:55:22;8.83;;;5.33;;
3311;SDS011;1668;49.648;8.570;2023-03-17T03:57:49;7.67;;;5.47;;
3311;SDS011;1668;49.648;8.570;2023-03-17T04:00:16;6.63;;;5.00;;
3311;SDS011;1668;49.648;8.570;2023-03-17T04:02:44;9.50;;;6.07;;
3311;SDS011;1668;49.648;8.570;2023-03-17T04:05:12;8.37;;;5.33;;
3311;SDS011;1668;49.648;8.570;2023-03-17T04:07:39;8.10;;;4.97;;
3311;SDS011;1668;49.648;8.570;2023-03-17T04:10:07;10.97;;;6.10;;
3311;SDS011;1668;49.648;8.570;2023-03-17T04:12:35;7.47;;;5.30;;
3311;SDS011;1668;49.648;8.570;2023-03-17T04:15:02;9.30;;;5.70;;
3311;SDS011;1668;49.648;8.570;2023-03-17T04:17:29;8.40;;;5.63;;
3311;SDS011;1668;49.648;8.570;2023-03-17T04:19:56;6.37;;;4.93;;
3311;SDS011;1668;49.648;8.570;2023-03-17T04:22:25;9.53;;;5.10;;
3311;SDS011;1668;49.648;8.570;2023-03-17T04:24:51;7.23;;;4.90;;
3311;SDS011;1668;49.648;8.570;2023-03-17T04:27:18;5.67;;;4.60;;
3311;SDS011;1668;49.648;8.570;2023-03-17T04:29:45;6.70;;;4.60;;
3311;SDS011;1668;49.648;8.570;2023-03-17T04:32:13;7.40;;;5.30;;
3311;SDS011;1668;49.648;8.570;2023-03-17T04:34:40;9.47;;;5.90;;
3311;SDS011;1668;49.648;8.570;2023-03-17T04:37:08;9.50;;;5.53;;
3311;SDS011;1668;49.648;8.570;2023-03-17T04:39:36;10.43;;;5.60;;
3311;SDS011;1668;49.648;8.570;2023-03-17T04:42:03;8.63;;;5.00;;
3311;SDS011;1668;49.648;8.570;2023-03-17T04:44:31;7.23;;;5.57;;
3311;SDS011;1668;49.648;8.570;2023-03-17T04:46:58;8.43;;;6.07;;
3311;SDS011;1668;49.648;8.570;2023-03-17T04:49:24;7.57;;;5.40;;
3311;SDS011;1668;49.648;8.570;2023-03-17T04:51:52;9.50;;;5.83;;
3311;SDS011;1668;49.648;8.570;2023-03-17T04:54:19;6.93;;;5.07;;
3311;SDS011;1668;49.648;8.570;2023-03-17T04:56:47;9.70;;;5.80;;
3311;SDS011;1668;49.648;8.570;2023-03-17T04:59:14;6.70;;;5.27;;
3311;SDS011;1668;49.648;8.570;2023-03-17T05:01:41;6.27;;;4.80;;
3311;SDS011;1668;49.648;8.570;2023-03-17T05:04:08;10.17;;;6.17;;
3311;SDS011;1668;49.648;8.570;2023-03-17T05:06:35;7.20;;;5.53;;
3311;SDS011;1668;49.648;8.570;2023-03-17T05:09:02;7.13;;;5.17;;
3311;SDS011;1668;49.648;8.570;2023-03-17T05:11:29;6.60;;;5.20;;
3311;SDS011;1668;49.648;8.570;2023-03-17T05:13:58;8.73;;;5.70;;
3311;SDS011;1668;49.648;8.570;2023-03-17T05:16:25;9.73;;;5.83;;
3311;SDS011;1668;49.648;8.570;2023-03-17T05:18:51;9.57;;;5.70;;
3311;SDS011;1668;49.648;8.570;2023-03-17T05:21:19;9.37;;;6.17;;
3311;SDS011;1668;49.648;8.570;2023-03-17T05:23:46;8.13;;;6.00;;
3311;SDS011;1668;49.648;8.570;2023-03-17T05:26:13;8.67;;;6.30;;
3311;SDS011;1668;49.648;8.570;2023-03-17T05:28:40;10.07;;;6.00;;
3311;SDS011;1668;49.648;8.570;2023-03-17T05:31:08;9.87;;;6.10;;
3311;SDS011;1668;49.648;8.570;2023-03-17T05:33:35;10.60;;;6.30;;
3311;SDS011;1668;49.648;8.570;2023-03-17T05:36:02;10.97;;;6.67;;
3311;SDS011;1668;49.648;8.570;2023-03-17T05:38:30;10.00;;;6.93;;
3311;SDS011;1668;49.648;8.570;2023-03-17T05:40:57;9.90;;;6.20;;
3311;SDS011;1668;49.648;8.570;2023-03-17T05:43:24;9.23;;;6.97;;
3311;SDS011;1668;49.648;8.570;2023-03-17T05:45:51;10.97;;;7.60;;
3311;SDS011;1668;49.648;8.570;2023-03-17T05:48:19;10.53;;;7.53;;
3311;SDS011;1668;49.648;8.570;2023-03-17T05:50:46;9.97;;;7.00;;
3311;SDS011;1668;49.648;8.570;2023-03-17T05:53:13;10.63;;;7.53;;
3311;SDS011;1668;49.648;8.570;2023-03-17T05:55:41;9.73;;;6.87;;
3311;SDS011;1668;49.648;8.570;2023-03-17T05:58:08;8.77;;;6.77;;
3311;SDS011;1668;49.648;8.570;2023-03-17T06:00:35;10.10;;;6.30;;
3311;SDS011;1668;49.648;8.570;2023-03-17T06:03:03;7.40;;;6.07;;
3311;SDS011;1668;49.648;8.570;2023-03-17T06:05:31;10.40;;;6.97;;
3311;SDS011;1668;49.648;8.570;2023-03-17T06:07:58;9.77;;;6.00;;
3311;SDS011;1668;49.648;8.570;2023-03-17T06:10:25;7.60;;;6.00;;
3311;SDS011;1668;49.648;8.570;2023-03-17T06:12:52;8.20;;;5.97;;
3311;SDS011;1668;49.648;8.570;2023-03-17T06:15:19;11.67;;;6.70;;
3311;SDS011;1668;49.648;8.570;2023-03-17T06:17:46;8.50;;;6.23;;
3311;SDS011;1668;49.648;8.570;2023-03-17T06:20:13;13.77;;;6.97;;
3311;SDS011;1668;49.648;8.570;2023-03-17T06:22:42;10.30;;;6.50;;
3311;SDS011;1668;49.648;8.570;2023-03-17T06:25:09;10.90;;;7.53;;
3311;SDS011;1668;49.648;8.570;2023-03-17T06:27:37;12.00;;;7.13;;
3311;SDS011;1668;49.648;8.570;2023-03-17T06:30:05;10.43;;;7.20;;
3311;SDS011;1668;49.648;8.570;2023-03-17T06:32:33;9.50;;;7.20;;
3311;SDS011;1668;49.648;8.570;2023-03-17T06:35:00;9.13;;;7.30;;
3311;SDS011;1668;49.648;8.570;2023-03-17T06:37:29;13.13;;;6.63;;
3311;SDS011;1668;49.648;8.570;2023-03-17T06:39:57;13.83;;;7.83;;
3311;SDS011;1668;49.648;8.570;2023-03-17T06:42:25;9.30;;;6.30;;
3311;SDS011;1668;49.648;8.570;2023-03-17T06:44:52;10.73;;;7.20;;
3311;SDS011;1668;49.648;8.570;2023-03-17T06:47:19;13.10;;;7.50;;
3311;SDS011;1668;49.648;8.570;2023-03-17T06:49:46;12.20;;;7.80;;
3311;SDS011;1668;49.648;8.570;2023-03-17T06:52:13;10.17;;;7.00;;
3311;SDS011;1668;49.648;8.570;2023-03-17T06:54:40;9.53;;;7.47;;
3311;SDS011;1668;49.648;8.570;2023-03-17T06:57:08;11.67;;;6.97;;
3311;SDS011;1668;49.648;8.570;2023-03-17T06:59:36;11.33;;;7.30;;
3311;SDS011;1668;49.648;8.570;2023-03-17T07:02:03;10.10;;;7.03;;
3311;SDS011;1668;49.648;8.570;2023-03-17T07:04:30;10.47;;;7.70;;
3311;SDS011;1668;49.648;8.570;2023-03-17T07:06:57;11.93;;;7.63;;
3311;SDS011;1668;49.648;8.570;2023-03-17T07:09:24;10.73;;;7.93;;
3311;SDS011;1668;49.648;8.570;2023-03-17T07:11:51;15.67;;;8.20;;
3311;SDS011;1668;49.648;8.570;2023-03-17T07:14:19;12.43;;;8.20;;
3311;SDS011;1668;49.648;8.570;2023-03-17T07:16:46;10.80;;;7.20;;
3311;SDS011;1668;49.648;8.570;2023-03-17T07:19:14;12.40;;;8.00;;
3311;SDS011;1668;49.648;8.570;2023-03-17T07:21:41;10.90;;;7.50;;
3311;SDS011;1668;49.648;8.570;2023-03-17T07:24:08;12.67;;;8.37;;
3311;SDS011;1668;49.648;8.570;2023-03-17T07:26:36;10.40;;;7.63;;
3311;SDS011;1668;49.648;8.570;2023-03-17T07:29:04;10.13;;;7.17;;
3311;SDS011;1668;49.648;8.570;2023-03-17T07:31:33;11.37;;;7.70;;
3311;SDS011;1668;49.648;8.570;2023-03-17T07:34:02;10.73;;;7.27;;
3311;SDS011;1668;49.648;8.570;2023-03-17T07:36:30;10.20;;;7.07;;
3311;SDS011;1668;49.648;8.570;2023-03-17T07:38:57;10.37;;;7.27;;
3311;SDS011;1668;49.648;8.570;2023-03-17T07:41:25;9.73;;;7.00;;
3311;SDS011;1668;49.648;8.570;2023-03-17T07:43:52;11.83;;;7.30;;
3311;SDS011;1668;49.648;8.570;2023-03-17T07:46:19;9.70;;;6.70;;
3311;SDS011;1668;49.648;8.570;2023-03-17T07:48:48;9.50;;;6.37;;
3311;SDS011;1668;49.648;8.570;2023-03-17T07:51:15;7.53;;;6.30;;
3311;SDS011;1668;49.648;8.570;2023-03-17T07:53:45;9.33;;;6.50;;
3311;SDS011;1668;49.648;8.570;2023-03-17T07:56:12;7.47;;;5.63;;
3311;SDS011;1668;49.648;8.570;2023-03-17T07:58:38;9.17;;;6.37;;
3311;SDS011;1668;49.648;8.570;2023-03-17T08:01:06;9.63;;;6.27;;
3311;SDS011;1668;49.648;8.570;2023-03-17T08:03:33;9.80;;;6.30;;
3311;SDS011;1668;49.648;8.570;2023-03-17T08:06:02;12.50;;;6.90;;
3311;SDS011;1668;49.648;8.570;2023-03-17T08:08:30;9.30;;;6.47;;
3311;SDS011;1668;49.648;8.570;2023-03-17T08:10:59;8.77;;;6.70;;
3311;SDS011;1668;49.648;8.570;2023-03-17T08:13:28;11.87;;;6.60;;
3311;SDS011;1668;49.648;8.570;2023-03-17T08:15:55;9.27;;;6.63;;
3311;SDS011;1668;49.648;8.570;2023-03-17T08:18:22;8.40;;;6.67;;
3311;SDS011;1668;49.648;8.570;2023-03-17T08:20:49;8.87;;;6.23;;
3311;SDS011;1668;49.648;8.570;2023-03-17T08:23:17;14.23;;;6.47;;
3311;SDS011;1668;49.648;8.570;2023-03-17T08:25:45;10.20;;;7.40;;
3311;SDS011;1668;49.648;8.570;2023-03-17T08:28:13;12.00;;;7.40;;
3311;SDS011;1668;49.648;8.570;2023-03-17T08:30:40;12.97;;;7.23;;
3311;SDS011;1668;49.648;8.570;2023-03-17T08:33:08;12.97;;;7.17;;
3311;SDS011;1668;49.648;8.570;2023-03-17T08:35:35;7.93;;;6.60;;
3311;SDS011;1668;49.648;8.570;2023-03-17T08:38:05;8.13;;;6.57;;
3311;SDS011;1668;49.648;8.570;2023-03-17T08:40:34;12.47;;;6.67;;
3311;SDS011;1668;49.648;8.570;2023-03-17T08:43:01;10.30;;;7.10;;
3311;SDS011;1668;49.648;8.570;2023-03-17T08:45:28;8.40;;;6.87;;
3311;SDS011;1668;49.648;8.570;2023-03-17T08:47:55;8.93;;;6.77;;
3311;SDS011;1668;49.648;8.570;2023-03-17T08:50:23;8.17;;;6.13;;
3311;SDS011;1668;49.648;8.570;2023-03-17T08:52:50;7.67;;;6.03;;
3311;SDS011;1668;49.648;8.570;2023-03-17T08:55:18;11.90;;;6.20;;
3311;SDS011;1668;49.648;8.570;2023-03-17T08:57:47;11.47;;;6.17;;
3311;SDS011;1668;49.648;8.570;2023-03-17T09:00:15;10.07;;;5.47;;
3311;SDS011;1668;49.648;8.570;2023-03-17T09:02:44;7.93;;;6.37;;
3311;SDS011;1668;49.648;8.570;2023-03-17T09:05:13;7.03;;;5.80;;
3311;SDS011;1668;49.648;8.570;2023-03-17T09:07:43;9.93;;;6.90;;
3311;SDS011;1668;49.648;8.570;2023-03-17T09:10:10;8.50;;;6.40;;
3311;SDS011;1668;49.648;8.570;2023-03-17T09:12:39;10.17;;;6.77;;
3311;SDS011;1668;49.648;8.570;2023-03-17T09:15:10;8.97;;;6.10;;
3311;SDS011;1668;49.648;8.570;2023-03-17T09:17:37;7.30;;;5.80;;
3311;SDS011;1668;49.648;8.570;2023-03-17T09:20:05;8.00;;;5.93;;
3311;SDS011;1668;49.648;8.570;2023-03-17T09:22:33;6.80;;;4.70;;
3311;SDS011;1668;49.648;8.570;2023-03-17T09:25:01;7.57;;;4.97;;
3311;SDS011;1668;49.648;8.570;2023-03-17T09:27:28;5.80;;;4.50;;
3311;SDS011;1668;49.648;8.570;2023-03-17T09:29:55;10.60;;;5.10;;
3311;SDS011;1668;49.648;8.570;2023-03-17T09:32:23;6.17;;;4.60;;
3311;SDS011;1668;49.648;8.570;2023-03-17T09:34:50;8.47;;;5.20;;
3311;SDS011;1668;49.648;8.570;2023-03-17T09:37:17;8.47;;;6.00;;
3311;SDS011;1668;49.648;8.570;2023-03-17T09:39:44;7.67;;;5.30;;
3311;SDS011;1668;49.648;8.570;2023-03-17T09:42:13;6.90;;;5.47;;
3311;SDS011;1668;49.648;8.570;2023-03-17T09:44:55;8.73;;;5.70;;
3311;SDS011;1668;49.648;8.570;2023-03-17T09:47:43;9.53;;;5.63;;
3311;SDS011;1668;49.648;8.570;2023-03-17T09:50:34;11.43;;;5.87;;
3311;SDS011;1668;49.648;8.570;2023-03-17T09:53:11;7.43;;;6.00;;
3311;SDS011;1668;49.648;8.570;2023-03-17T09:55:43;10.03;;;6.17;;
3311;SDS011;1668;49.648;8.570;2023-03-17T09:58:12;8.90;;;6.67;;
3311;SDS011;1668;49.648;8.570;2023-03-17T10:00:39;9.47;;;6.53;;
3311;SDS011;1668;49.648;8.570;2023-03-17T10:03:09;9.90;;;6.10;;
3311;SDS011;1668;49.648;8.570;2023-03-17T10:05:37;8.50;;;6.23;;
3311;SDS011;1668;49.648;8.570;2023-03-17T10:08:05;7.83;;;6.30;;
3311;SDS011;1668;49.648;8.570;2023-03-17T10:10:39;8.40;;;6.57;;
3311;SDS011;1668;49.648;8.570;2023-03-17T10:13:13;9.20;;;5.80;;
3311;SDS011;1668;49.648;8.570;2023-03-17T10:15:48;13.20;;;6.17;;
3311;SDS011;1668;49.648;8.570;2023-03-17T10:18:22;9.10;;;5.60;;
3311;SDS011;1668;49.648;8.570;2023-03-17T10:20:52;8.17;;;6.03;;
3311;SDS011;1668;49.648;8.570;2023-03-17T10:23:23;11.27;;;6.93;;
3311;SDS011;1668;49.648;8.570;2023-03-17T10:25:53;9.53;;;6.60;;
3311;SDS011;1668;49.648;8.570;2023-03-17T10:28:23;9.27;;;5.13;;
3311;SDS011;1668;49.648;8.570;2023-03-17T10:30:56;9.60;;;5.53;;
3311;SDS011;1668;49.648;8.570;2023-03-17T10:33:28;6.30;;;4.80;;
3311;SDS011;1668;49.648;8.570;2023-03-17T10:35:58;7.30;;;5.00;;
3311;SDS011;1668;49.648;8.570;2023-03-17T10:38:33;7.70;;;5.40;;
3311;SDS011;1668;49.648;8.570;2023-03-17T10:41:04;7.03;;;5.43;;
3311;SDS011;1668;49.648;8.570;2023-03-17T10:43:34;8.63;;;4.90;;
3311;SDS011;1668;49.648;8.570;2023-03-17T10:46:06;8.37;;;5.60;;
3311;SDS011;1668;49.648;8.570;2023-03-17T10:48:43;9.70;;;5.40;;
3311;SDS011;1668;49.648;8.570;2023-03-17T10:51:19;9.03;;;6.10;;
3311;SDS011;1668;49.648;8.570;2023-03-17T10:53:51;9.10;;;5.80;;
3311;SDS011;1668;49.648;8.570;2023-03-17T10:56:21;9.10;;;5.40;;
3311;SDS011;1668;49.648;8.570;2023-03-17T10:58:50;7.50;;;5.50;;
3311;SDS011;1668;49.648;8.570;2023-03-17T11:01:19;8.43;;;5.57;;
3311;SDS011;1668;49.648;8.570;2023-03-17T11:03:50;8.33;;;5.70;;
3311;SDS011;1668;49.648;8.570;2023-03-17T11:06:18;7.60;;;5.10;;
3311;SDS011;1668;49.648;8.570;2023-03-17T11:08:47;10.67;;;5.30;;
3311;SDS011;1668;49.648;8.570;2023-03-17T11:11:22;8.93;;;4.53;;
3311;SDS011;1668;49.648;8.570;2023-03-17T11:13:50;7.70;;;4.87;;
3311;SDS011;1668;49.648;8.570;2023-03-17T11:16:18;7.47;;;4.67;;
3311;SDS011;1668;49.648;8.570;2023-03-17T11:18:47;8.23;;;4.43;;
3311;SDS011;1668;49.648;8.570;2023-03-17T11:21:18;8.60;;;4.73;;
3311;SDS011;1668;49.648;8.570;2023-03-17T11:23:51;12.20;;;5.60;;
3311;SDS011;1668;49.648;8.570;2023-03-17T11:26:30;6.60;;;4.73;;
3311;SDS011;1668;49.648;8.570;2023-03-17T11:31:59;8.37;;;5.10;;
3311;SDS011;1668;49.648;8.570;2023-03-17T11:34:45;9.27;;;5.40;;
3311;SDS011;1668;49.648;8.570;2023-03-17T11:37:24;7.50;;;4.90;;
3311;SDS011;1668;49.648;8.570;2023-03-17T11:40:10;7.17;;;4.33;;
3311;SDS011;1668;49.648;8.570;2023-03-17T11:42:46;8.20;;;5.33;;
3311;SDS011;1668;49.648;8.570;2023-03-17T11:45:22;7.30;;;5.20;;
3311;SDS011;1668;49.648;8.570;2023-03-17T11:47:56;7.30;;;5.20;;
3311;SDS011;1668;49.648;8.570;2023-03-17T11:50:32;6.80;;;4.53;;
3311;SDS011;1668;49.648;8.570;2023-03-17T11:53:11;7.33;;;4.37;;
3311;SDS011;1668;49.648;8.570;2023-03-17T11:55:50;7.97;;;4.83;;
3311;SDS011;1668;49.648;8.570;2023-03-17T11:58:24;7.70;;;4.60;;
3311;SDS011;1668;49.648;8.570;2023-03-17T12:00:56;7.40;;;4.77;;
3311;SDS011;1668;49.648;8.570;2023-03-17T12:03:27;5.87;;;4.00;;
3311;SDS011;1668;49.648;8.570;2023-03-17T12:06:02;7.53;;;4.20;;
3311;SDS011;1668;49.648;8.570;2023-03-17T12:08:34;7.57;;;4.30;;
3311;SDS011;1668;49.648;8.570;2023-03-17T12:11:04;7.37;;;4.70;;
3311;SDS011;1668;49.648;8.570;2023-03-17T12:13:35;7.07;;;5.20;;
3311;SDS011;1668;49.648;8.570;2023-03-17T12:16:07;7.80;;;4.90;;
3311;SDS011;1668;49.648;8.570;2023-03-17T12:18:39;9.90;;;4.90;;
3311;SDS011;1668;49.648;8.570;2023-03-17T12:21:16;6.90;;;4.80;;
3311;SDS011;1668;49.648;8.570;2023-03-17T12:23:51;7.77;;;4.50;;
3311;SDS011;1668;49.648;8.570;2023-03-17T12:26:27;6.03;;;4.10;;
3311;SDS011;1668;49.648;8.570;2023-03-17T12:29:03;6.47;;;4.60;;
3311;SDS011;1668;49.648;8.570;2023-03-17T12:31:37;6.40;;;4.50;;
3311;SDS011;1668;49.648;8.570;2023-03-17T12:34:09;8.60;;;4.00;;
3311;SDS011;1668;49.648;8.570;2023-03-17T12:36:48;6.90;;;4.30;;
3311;SDS011;1668;49.648;8.570;2023-03-17T12:39:18;6.30;;;4.10;;
3311;SDS011;1668;49.648;8.570;2023-03-17T12:41:55;7.47;;;4.40;;
3311;SDS011;1668;49.648;8.570;2023-03-17T12:47:30;5.90;;;3.93;;
3311;SDS011;1668;49.648;8.570;2023-03-17T12:50:30;6.60;;;3.90;;
3311;SDS011;1668;49.648;8.570;2023-03-17T12:53:27;6.37;;;4.00;;
3311;SDS011;1668;49.648;8.570;2023-03-17T12:55:58;7.20;;;3.00;;
3311;SDS011;1668;49.648;8.570;2023-03-17T12:58:28;4.87;;;2.90;;
3311;SDS011;1668;49.648;8.570;2023-03-17T13:01:02;4.13;;;2.97;;
3311;SDS011;1668;49.648;8.570;2023-03-17T13:03:33;5.17;;;2.43;;
3311;SDS011;1668;49.648;8.570;2023-03-17T13:06:03;4.10;;;3.03;;
3311;SDS011;1668;49.648;8.570;2023-03-17T13:08:35;7.13;;;4.87;;
3311;SDS011;1668;49.648;8.570;2023-03-17T13:11:17;4.10;;;2.90;;
3311;SDS011;1668;49.648;8.570;2023-03-17T13:16:42;4.90;;;3.23;;
3311;SDS011;1668;49.648;8.570;2023-03-17T13:19:13;6.40;;;3.33;;
3311;SDS011;1668;49.648;8.570;2023-03-17T13:21:48;4.47;;;2.70;;
3311;SDS011;1668;49.648;8.570;2023-03-17T13:24:40;5.13;;;3.07;;
3311;SDS011;1668;49.648;8.570;2023-03-17T13:27:11;6.57;;;3.77;;
3311;SDS011;1668;49.648;8.570;2023-03-17T13:29:41;9.60;;;3.70;;
3311;SDS011;1668;49.648;8.570;2023-03-17T13:35:10;5.03;;;3.33;;
3311;SDS011;1668;49.648;8.570;2023-03-17T13:37:48;6.93;;;4.50;;
3311;SDS011;1668;49.648;8.570;2023-03-17T13:40:37;5.67;;;4.17;;
3311;SDS011;1668;49.648;8.570;2023-03-17T13:43:15;7.93;;;4.27;;
3311;SDS011;1668;49.648;8.570;2023-03-17T13:45:54;11.63;;;4.40;;
3311;SDS011;1668;49.648;8.570;2023-03-17T13:48:41;6.30;;;4.00;;
3311;SDS011;1668;49.648;8.570;2023-03-17T13:51:11;5.00;;;3.47;;
3311;SDS011;1668;49.648;8.570;2023-03-17T13:53:46;5.27;;;3.87;;
3311;SDS011;1668;49.648;8.570;2023-03-17T13:56:20;5.83;;;4.20;;
3311;SDS011;1668;49.648;8.570;2023-03-17T13:58:50;7.70;;;3.77;;
3311;SDS011;1668;49.648;8.570;2023-03-17T14:01:21;5.47;;;3.63;;
3311;SDS011;1668;49.648;8.570;2023-03-17T14:03:50;5.20;;;3.80;;
3311;SDS011;1668;49.648;8.570;2023-03-17T14:06:21;6.60;;;4.00;;
3311;SDS011;1668;49.648;8.570;2023-03-17T14:08:56;6.20;;;3.03;;
3311;SDS011;1668;49.648;8.570;2023-03-17T14:11:30;7.07;;;3.40;;
3311;SDS011;1668;49.648;8.570;2023-03-17T14:14:13;5.80;;;3.53;;
3311;SDS011;1668;49.648;8.570;2023-03-17T14:16:50;5.63;;;3.70;;
3311;SDS011;1668;49.648;8.570;2023-03-17T14:19:21;7.10;;;4.17;;
3311;SDS011;1668;49.648;8.570;2023-03-17T14:21:51;9.97;;;3.73;;
3311;SDS011;1668;49.648;8.570;2023-03-17T14:24:19;4.60;;;3.50;;
3311;SDS011;1668;49.648;8.570;2023-03-17T14:26:49;5.30;;;3.70;;
3311;SDS011;1668;49.648;8.570;2023-03-17T14:29:18;5.23;;;3.37;;
3311;SDS011;1668;49.648;8.570;2023-03-17T14:31:49;5.97;;;4.20;;
3311;SDS011;1668;49.648;8.570;2023-03-17T14:34:26;5.77;;;3.40;;
3311;SDS011;1668;49.648;8.570;2023-03-17T14:36:52;6.13;;;3.67;;
3311;SDS011;1668;49.648;8.570;2023-03-17T14:39:22;5.40;;;3.53;;
3311;SDS011;1668;49.648;8.570;2023-03-17T14:41:58;5.47;;;3.70;;
3311;SDS011;1668;49.648;8.570;2023-03-17T14:44:26;6.27;;;3.97;;
3311;SDS011;1668;49.648;8.570;2023-03-17T14:47:01;8.23;;;4.37;;
3311;SDS011;1668;49.648;8.570;2023-03-17T14:49:29;6.70;;;4.50;;
3311;SDS011;1668;49.648;8.570;2023-03-17T14:51:57;8.50;;;4.00;;
3311;SDS011;1668;49.648;8.570;2023-03-17T14:54:28;11.97;;;7.60;;
3311;SDS011;1668;49.648;8.570;2023-03-17T14:57:00;16.57;;;12.00;;
3311;SDS011;1668;49.648;8.570;2023-03-17T14:59:32;22.47;;;14.43;;
3311;SDS011;1668;49.648;8.570;2023-03-17T15:02:02;8.40;;;5.10;;
3311;SDS011;1668;49.648;8.570;2023-03-17T15:04:48;11.10;;;5.87;;
3311;SDS011;1668;49.648;8.570;2023-03-17T15:07:25;12.73;;;6.80;;
3311;SDS011;1668;49.648;8.570;2023-03-17T15:09:58;8.53;;;4.47;;
3311;SDS011;1668;49.648;8.570;2023-03-17T15:12:28;7.53;;;4.97;;
3311;SDS011;1668;49.648;8.570;2023-03-17T15:14:57;6.37;;;4.70;;
3311;SDS011;1668;49.648;8.570;2023-03-17T15:17:29;6.80;;;4.07;;
3311;SDS011;1668;49.648;8.570;2023-03-17T15:19:59;5.20;;;3.80;;
3311;SDS011;1668;49.648;8.570;2023-03-17T15:22:29;8.90;;;4.07;;
3311;SDS011;1668;49.648;8.570;2023-03-17T15:24:57;6.17;;;3.93;;
3311;SDS011;1668;49.648;8.570;2023-03-17T15:27:50;7.63;;;4.40;;
3311;SDS011;1668;49.648;8.570;2023-03-17T15:30:19;10.37;;;4.23;;
3311;SDS011;1668;49.648;8.570;2023-03-17T15:32:49;7.33;;;3.80;;
3311;SDS011;1668;49.648;8.570;2023-03-17T15:35:17;6.00;;;4.00;;
3311;SDS011;1668;49.648;8.570;2023-03-17T15:37:45;6.70;;;4.40;;
3311;SDS011;1668;49.648;8.570;2023-03-17T15:40:12;8.90;;;4.60;;